sensor_id;sensor_type;location;lat;lon;timestamp;pressure;altitude;pressure_sealevel;temperature;humidity
22025;BME280;11176;51.448;6.650;2023-05-23T00:01:01;38782.00;;;-141.29;86.99
22025;BME280;11176;51.448;6.650;2023-05-23T00:03:27;38750.09;;;-141.29;87.21
22025;BME280;11176;51.448;6.650;2023-05-23T00:05:56;38734.16;;;-141.29;87.18
22025;BME280;11176;51.448;6.650;2023-05-23T00:08:24;38778.03;;;-141.29;86.93
22025;BME280;11176;51.448;6.650;2023-05-23T00:10:51;38750.09;;;-141.29;86.30
22025;BME280;11176;51.448;6.650;2023-05-23T00:13:18;38760.06;;;-141.29;86.00
22025;BME280;11176;51.448;6.650;2023-05-23T00:15:45;38738.13;;;-141.29;85.72
22025;BME280;11176;51.448;6.650;2023-05-23T00:18:11;38710.22;;;-141.29;85.53
22025;BME280;11176;51.448;6.650;2023-05-23T00:20:40;38714.19;;;-141.29;85.68
22025;BME280;11176;51.448;6.650;2023-05-23T00:23:07;38718.19;;;-141.29;85.53
22025;BME280;11176;51.448;6.650;2023-05-23T00:25:35;38732.16;;;-141.29;85.41
22025;BME280;11176;51.448;6.650;2023-05-23T00:28:03;38734.16;;;-141.29;85.64
22025;BME280;11176;51.448;6.650;2023-05-23T00:30:32;38752.09;;;-141.29;85.90
22025;BME280;11176;51.448;6.650;2023-05-23T00:32:59;38728.16;;;-141.29;86.44
22025;BME280;11176;51.448;6.650;2023-05-23T00:35:26;38730.16;;;-141.29;86.26
22025;BME280;11176;51.448;6.650;2023-05-23T00:37:52;38734.16;;;-141.29;86.32
22025;BME280;11176;51.448;6.650;2023-05-23T00:40:20;38734.16;;;-141.29;86.07
22025;BME280;11176;51.448;6.650;2023-05-23T00:42:47;38744.13;;;-141.29;86.37
22025;BME280;11176;51.448;6.650;2023-05-23T00:45:14;38742.13;;;-141.29;86.57
22025;BME280;11176;51.448;6.650;2023-05-23T00:47:43;38722.19;;;-141.29;85.88
22025;BME280;11176;51.448;6.650;2023-05-23T00:50:11;38722.19;;;-141.29;85.58
22025;BME280;11176;51.448;6.650;2023-05-23T00:52:44;38744.13;;;-141.29;85.70
22025;BME280;11176;51.448;6.650;2023-05-23T00:55:11;38722.19;;;-141.29;85.73
22025;BME280;11176;51.448;6.650;2023-05-23T00:57:39;38714.19;;;-141.29;85.77
22025;BME280;11176;51.448;6.650;2023-05-23T01:00:11;38722.19;;;-141.29;85.60
22025;BME280;11176;51.448;6.650;2023-05-23T01:02:41;38726.16;;;-141.29;85.60
22025;BME280;11176;51.448;6.650;2023-05-23T01:05:09;38714.19;;;-141.29;85.79
22025;BME280;11176;51.448;6.650;2023-05-23T01:07:40;38718.19;;;-141.29;85.74
22025;BME280;11176;51.448;6.650;2023-05-23T01:10:08;38748.09;;;-141.29;85.48
22025;BME280;11176;51.448;6.650;2023-05-23T01:15:29;38752.09;;;-141.29;85.85
22025;BME280;11176;51.448;6.650;2023-05-23T01:18:03;38726.16;;;-141.29;86.42
22025;BME280;11176;51.448;6.650;2023-05-23T01:20:38;38730.16;;;-141.29;86.19
22025;BME280;11176;51.448;6.650;2023-05-23T01:26:01;38726.16;;;-141.29;86.50
22025;BME280;11176;51.448;6.650;2023-05-23T01:28:32;38714.19;;;-141.29;86.74
22025;BME280;11176;51.448;6.650;2023-05-23T01:31:03;38730.16;;;-141.29;86.62
22025;BME280;11176;51.448;6.650;2023-05-23T01:33:32;38758.06;;;-141.29;86.85
22025;BME280;11176;51.448;6.650;2023-05-23T01:36:01;38726.16;;;-141.29;86.85
22025;BME280;11176;51.448;6.650;2023-05-23T01:38:30;38730.16;;;-141.29;87.09
22025;BME280;11176;51.448;6.650;2023-05-23T01:40:58;38734.16;;;-141.29;87.47
22025;BME280;11176;51.448;6.650;2023-05-23T01:43:25;38746.13;;;-141.29;87.72
22025;BME280;11176;51.448;6.650;2023-05-23T01:45:55;38738.13;;;-141.29;87.02
22025;BME280;11176;51.448;6.650;2023-05-23T01:48:24;38730.16;;;-141.29;87.13
22025;BME280;11176;51.448;6.650;2023-05-23T01:50:52;38746.13;;;-141.29;87.15
22025;BME280;11176;51.448;6.650;2023-05-23T01:53:21;38736.13;;;-141.29;86.94
22025;BME280;11176;51.448;6.650;2023-05-23T01:55:49;38738.13;;;-141.29;87.00
22025;BME280;11176;51.448;6.650;2023-05-23T01:58:16;38758.06;;;-141.29;86.97
22025;BME280;11176;51.448;6.650;2023-05-23T02:00:44;38742.13;;;-141.29;86.81
22025;BME280;11176;51.448;6.650;2023-05-23T02:03:11;38762.06;;;-141.29;86.81
22025;BME280;11176;51.448;6.650;2023-05-23T02:05:38;38734.16;;;-141.29;86.94
22025;BME280;11176;51.448;6.650;2023-05-23T02:08:06;38736.13;;;-141.29;86.81
22025;BME280;11176;51.448;6.650;2023-05-23T02:10:32;38732.16;;;-141.29;86.63
22025;BME280;11176;51.448;6.650;2023-05-23T02:12:59;38750.09;;;-141.29;86.77
22025;BME280;11176;51.448;6.650;2023-05-23T02:15:27;38750.09;;;-141.29;86.58
22025;BME280;11176;51.448;6.650;2023-05-23T02:17:53;38734.16;;;-141.29;87.23
22025;BME280;11176;51.448;6.650;2023-05-23T02:20:20;38734.16;;;-141.29;86.80
22025;BME280;11176;51.448;6.650;2023-05-23T02:22:47;38724.16;;;-141.29;87.56
22025;BME280;11176;51.448;6.650;2023-05-23T02:25:13;38766.06;;;-141.29;87.09
22025;BME280;11176;51.448;6.650;2023-05-23T02:27:41;38750.09;;;-141.29;87.40
22025;BME280;11176;51.448;6.650;2023-05-23T02:30:08;38754.09;;;-141.29;88.09
22025;BME280;11176;51.448;6.650;2023-05-23T02:32:35;38760.06;;;-141.29;88.18
22025;BME280;11176;51.448;6.650;2023-05-23T02:35:04;38762.06;;;-141.29;88.37
22025;BME280;11176;51.448;6.650;2023-05-23T02:37:31;38766.06;;;-141.29;88.94
22025;BME280;11176;51.448;6.650;2023-05-23T02:39:58;38774.03;;;-141.29;88.63
22025;BME280;11176;51.448;6.650;2023-05-23T02:42:25;38790.00;;;-141.29;88.64
22025;BME280;11176;51.448;6.650;2023-05-23T02:44:51;38770.03;;;-141.29;88.80
22025;BME280;11176;51.448;6.650;2023-05-23T02:47:18;38752.09;;;-141.29;88.69
22025;BME280;11176;51.448;6.650;2023-05-23T02:49:44;38782.00;;;-141.29;88.85
22025;BME280;11176;51.448;6.650;2023-05-23T02:52:12;38766.06;;;-141.29;88.73
22025;BME280;11176;51.448;6.650;2023-05-23T02:54:38;38762.06;;;-141.29;88.11
22025;BME280;11176;51.448;6.650;2023-05-23T02:57:06;38736.13;;;-141.29;88.10
22025;BME280;11176;51.448;6.650;2023-05-23T02:59:36;38758.06;;;-141.29;88.51
22025;BME280;11176;51.448;6.650;2023-05-23T03:02:02;38752.09;;;-141.29;88.25
22025;BME280;11176;51.448;6.650;2023-05-23T03:04:29;38756.09;;;-141.29;87.81
22025;BME280;11176;51.448;6.650;2023-05-23T03:06:55;38722.19;;;-141.29;87.72
22025;BME280;11176;51.448;6.650;2023-05-23T03:09:25;38714.19;;;-141.29;87.10
22025;BME280;11176;51.448;6.650;2023-05-23T03:11:52;38714.19;;;-141.29;87.63
22025;BME280;11176;51.448;6.650;2023-05-23T03:14:18;38706.22;;;-141.29;87.43
22025;BME280;11176;51.448;6.650;2023-05-23T03:16:47;38734.16;;;-141.29;87.25
22025;BME280;11176;51.448;6.650;2023-05-23T03:19:14;38746.13;;;-141.29;87.62
22025;BME280;11176;51.448;6.650;2023-05-23T03:21:41;38706.22;;;-141.29;87.70
22025;BME280;11176;51.448;6.650;2023-05-23T03:24:09;38722.19;;;-141.29;87.62
22025;BME280;11176;51.448;6.650;2023-05-23T03:26:37;38724.16;;;-141.29;87.50
22025;BME280;11176;51.448;6.650;2023-05-23T03:29:04;38708.22;;;-141.29;87.50
22025;BME280;11176;51.448;6.650;2023-05-23T03:31:30;38712.22;;;-141.29;88.01
22025;BME280;11176;51.448;6.650;2023-05-23T03:33:57;38718.19;;;-141.29;88.43
22025;BME280;11176;51.448;6.650;2023-05-23T03:36:24;38718.19;;;-141.29;88.69
22025;BME280;11176;51.448;6.650;2023-05-23T03:38:54;38710.22;;;-141.29;88.74
22025;BME280;11176;51.448;6.650;2023-05-23T03:41:20;38742.13;;;-141.29;88.40
22025;BME280;11176;51.448;6.650;2023-05-23T03:43:48;38734.16;;;-141.29;88.69
22025;BME280;11176;51.448;6.650;2023-05-23T03:46:15;38726.16;;;-141.29;88.75
22025;BME280;11176;51.448;6.650;2023-05-23T03:48:42;38752.09;;;-141.29;88.95
22025;BME280;11176;51.448;6.650;2023-05-23T03:51:09;38766.06;;;-141.29;89.50
22025;BME280;11176;51.448;6.650;2023-05-23T03:53:35;38780.03;;;-141.29;90.73
22025;BME280;11176;51.448;6.650;2023-05-23T03:56:03;38762.06;;;-141.29;90.76
22025;BME280;11176;51.448;6.650;2023-05-23T03:58:30;38772.03;;;-141.29;91.33
22025;BME280;11176;51.448;6.650;2023-05-23T04:01:02;38754.09;;;-141.29;90.90
22025;BME280;11176;51.448;6.650;2023-05-23T04:03:29;38786.00;;;-141.29;91.27
22025;BME280;11176;51.448;6.650;2023-05-23T04:05:59;38793.97;;;-141.29;92.12
22025;BME280;11176;51.448;6.650;2023-05-23T04:08:26;38801.97;;;-141.29;92.33
22025;BME280;11176;51.448;6.650;2023-05-23T04:10:55;38805.94;;;-141.29;91.56
22025;BME280;11176;51.448;6.650;2023-05-23T04:13:24;38797.97;;;-141.29;91.74
22025;BME280;11176;51.448;6.650;2023-05-23T04:15:52;38793.97;;;-141.29;92.10
22025;BME280;11176;51.448;6.650;2023-05-23T04:18:22;38799.97;;;-141.29;92.67
22025;BME280;11176;51.448;6.650;2023-05-23T04:20:49;38825.91;;;-141.29;93.38
22025;BME280;11176;51.448;6.650;2023-05-23T04:23:16;38829.88;;;-141.29;92.98
22025;BME280;11176;51.448;6.650;2023-05-23T04:25:46;38837.84;;;-141.29;93.44
22025;BME280;11176;51.448;6.650;2023-05-23T04:28:20;38825.91;;;-141.29;93.04
22025;BME280;11176;51.448;6.650;2023-05-23T04:30:47;38833.88;;;-141.29;93.39
22025;BME280;11176;51.448;6.650;2023-05-23T04:33:17;38833.88;;;-141.29;93.63
22025;BME280;11176;51.448;6.650;2023-05-23T04:35:45;38837.84;;;-141.29;94.23
22025;BME280;11176;51.448;6.650;2023-05-23T04:38:12;38867.78;;;-141.29;94.13
22025;BME280;11176;51.448;6.650;2023-05-23T04:40:39;38871.75;;;-141.29;93.93
22025;BME280;11176;51.448;6.650;2023-05-23T04:43:25;38841.84;;;-141.29;93.92
22025;BME280;11176;51.448;6.650;2023-05-23T04:45:56;38873.75;;;-141.29;94.08
22025;BME280;11176;51.448;6.650;2023-05-23T04:48:43;38905.66;;;-141.29;94.10
22025;BME280;11176;51.448;6.650;2023-05-23T04:51:10;38885.72;;;-141.29;94.86
22025;BME280;11176;51.448;6.650;2023-05-23T04:54:00;38881.75;;;-141.29;94.77
22025;BME280;11176;51.448;6.650;2023-05-23T04:56:26;38909.66;;;-141.29;95.08
22025;BME280;11176;51.448;6.650;2023-05-23T04:58:54;38913.66;;;-141.29;95.22
22025;BME280;11176;51.448;6.650;2023-05-23T05:01:22;38929.59;;;-141.29;95.17
22025;BME280;11176;51.448;6.650;2023-05-23T05:03:52;38909.66;;;-141.29;94.97
22025;BME280;11176;51.448;6.650;2023-05-23T05:06:19;38925.63;;;-141.29;95.49
22025;BME280;11176;51.448;6.650;2023-05-23T05:08:47;38933.59;;;-141.29;95.55
22025;BME280;11176;51.448;6.650;2023-05-23T05:11:13;38921.63;;;-141.29;95.14
22025;BME280;11176;51.448;6.650;2023-05-23T05:13:40;38929.59;;;-141.29;94.95
22025;BME280;11176;51.448;6.650;2023-05-23T05:16:07;38929.59;;;-141.29;94.75
22025;BME280;11176;51.448;6.650;2023-05-23T05:18:34;38947.56;;;-141.29;94.90
22025;BME280;11176;51.448;6.650;2023-05-23T05:21:01;38943.56;;;-141.29;94.77
22025;BME280;11176;51.448;6.650;2023-05-23T05:23:30;38949.56;;;-141.29;94.84
22025;BME280;11176;51.448;6.650;2023-05-23T05:25:58;38957.53;;;-141.29;94.46
22025;BME280;11176;51.448;6.650;2023-05-23T05:28:26;38957.53;;;-141.29;94.37
22025;BME280;11176;51.448;6.650;2023-05-23T05:30:53;38937.59;;;-141.29;94.13
22025;BME280;11176;51.448;6.650;2023-05-23T05:33:21;38949.56;;;-141.29;94.08
22025;BME280;11176;51.448;6.650;2023-05-23T05:36:01;38925.63;;;-141.29;93.56
22025;BME280;11176;51.448;6.650;2023-05-23T05:38:28;38959.53;;;-141.29;93.43
22025;BME280;11176;51.448;6.650;2023-05-23T05:40:55;38945.56;;;-141.29;93.12
22025;BME280;11176;51.448;6.650;2023-05-23T05:43:25;38923.63;;;-141.29;92.72
22025;BME280;11176;51.448;6.650;2023-05-23T05:45:52;38909.66;;;-141.29;92.06
22025;BME280;11176;51.448;6.650;2023-05-23T05:48:19;38897.69;;;-141.29;91.81
22025;BME280;11176;51.448;6.650;2023-05-23T05:50:45;38921.63;;;-141.29;91.68
22025;BME280;11176;51.448;6.650;2023-05-23T05:53:12;38901.69;;;-141.29;91.52
22025;BME280;11176;51.448;6.650;2023-05-23T05:55:39;38897.69;;;-141.29;91.22
22025;BME280;11176;51.448;6.650;2023-05-23T05:58:06;38897.69;;;-141.29;91.14
22025;BME280;11176;51.448;6.650;2023-05-23T06:00:48;38893.72;;;-141.29;90.76
22025;BME280;11176;51.448;6.650;2023-05-23T06:03:14;38857.81;;;-141.29;90.49
22025;BME280;11176;51.448;6.650;2023-05-23T06:05:48;38853.81;;;-141.29;90.60
22025;BME280;11176;51.448;6.650;2023-05-23T06:08:15;38871.75;;;-141.29;90.43
22025;BME280;11176;51.448;6.650;2023-05-23T06:10:42;38865.78;;;-141.29;90.45
22025;BME280;11176;51.448;6.650;2023-05-23T06:13:09;38853.81;;;-141.29;90.16
22025;BME280;11176;51.448;6.650;2023-05-23T06:15:37;38873.75;;;-141.29;90.14
22025;BME280;11176;51.448;6.650;2023-05-23T06:18:04;38847.84;;;-141.29;90.05
22025;BME280;11176;51.448;6.650;2023-05-23T06:20:32;38841.84;;;-141.29;89.75
22025;BME280;11176;51.448;6.650;2023-05-23T06:23:01;38871.75;;;-141.29;89.69
22025;BME280;11176;51.448;6.650;2023-05-23T06:25:31;38873.75;;;-141.29;89.67
22025;BME280;11176;51.448;6.650;2023-05-23T06:27:57;38873.75;;;-141.29;89.72
22025;BME280;11176;51.448;6.650;2023-05-23T06:30:24;38861.78;;;-141.29;89.62
22025;BME280;11176;51.448;6.650;2023-05-23T06:32:52;38865.78;;;-141.29;89.67
22025;BME280;11176;51.448;6.650;2023-05-23T06:35:18;38875.75;;;-141.29;89.36
22025;BME280;11176;51.448;6.650;2023-05-23T06:37:45;38889.72;;;-141.29;89.01
22025;BME280;11176;51.448;6.650;2023-05-23T06:40:11;38869.78;;;-141.29;89.26
22025;BME280;11176;51.448;6.650;2023-05-23T06:42:41;38873.75;;;-141.29;88.50
22025;BME280;11176;51.448;6.650;2023-05-23T06:45:37;38877.75;;;-141.29;88.01
22025;BME280;11176;51.448;6.650;2023-05-23T06:48:03;38833.88;;;-141.29;87.86
22025;BME280;11176;51.448;6.650;2023-05-23T06:50:32;38855.81;;;-141.29;87.69
22025;BME280;11176;51.448;6.650;2023-05-23T06:52:58;38839.84;;;-141.29;87.69
22025;BME280;11176;51.448;6.650;2023-05-23T06:55:25;38879.75;;;-141.29;87.86
22025;BME280;11176;51.448;6.650;2023-05-23T06:57:55;38881.75;;;-141.29;88.36
22025;BME280;11176;51.448;6.650;2023-05-23T07:00:22;38879.75;;;-141.29;88.09
22025;BME280;11176;51.448;6.650;2023-05-23T07:03:03;38865.78;;;-141.29;87.95
22025;BME280;11176;51.448;6.650;2023-05-23T07:05:30;38897.69;;;-141.29;87.96
22025;BME280;11176;51.448;6.650;2023-05-23T07:07:59;38909.66;;;-141.29;87.85
22025;BME280;11176;51.448;6.650;2023-05-23T07:10:25;38893.72;;;-141.29;87.97
22025;BME280;11176;51.448;6.650;2023-05-23T07:12:58;38909.66;;;-141.29;88.06
22025;BME280;11176;51.448;6.650;2023-05-23T07:15:26;38897.69;;;-141.29;87.89
22025;BME280;11176;51.448;6.650;2023-05-23T07:18:03;38895.69;;;-141.29;87.63
22025;BME280;11176;51.448;6.650;2023-05-23T07:20:34;38901.69;;;-141.29;87.39
22025;BME280;11176;51.448;6.650;2023-05-23T07:23:09;38831.88;;;-141.29;86.07
22025;BME280;11176;51.448;6.650;2023-05-23T07:25:37;38801.97;;;-141.29;85.69
22025;BME280;11176;51.448;6.650;2023-05-23T07:28:22;38811.94;;;-141.29;85.61
22025;BME280;11176;51.448;6.650;2023-05-23T07:30:50;38825.91;;;-141.29;86.03
22025;BME280;11176;51.448;6.650;2023-05-23T07:33:17;38837.84;;;-141.29;85.96
22025;BME280;11176;51.448;6.650;2023-05-23T07:35:46;38835.88;;;-141.29;86.04
22025;BME280;11176;51.448;6.650;2023-05-23T07:38:12;38835.88;;;-141.29;86.88
22025;BME280;11176;51.448;6.650;2023-05-23T07:40:39;38813.94;;;-141.29;85.63
22025;BME280;11176;51.448;6.650;2023-05-23T07:43:06;38809.94;;;-141.29;85.43
22025;BME280;11176;51.448;6.650;2023-05-23T07:45:33;38809.94;;;-141.29;84.45
22025;BME280;11176;51.448;6.650;2023-05-23T07:48:00;38770.03;;;-141.29;84.57
22025;BME280;11176;51.448;6.650;2023-05-23T07:50:29;38782.00;;;-141.29;84.55
22025;BME280;11176;51.448;6.650;2023-05-23T07:52:58;38776.03;;;-141.29;84.66
22025;BME280;11176;51.448;6.650;2023-05-23T07:55:28;38774.03;;;-141.29;84.60
22025;BME280;11176;51.448;6.650;2023-05-23T07:57:54;38778.03;;;-141.29;84.78
22025;BME280;11176;51.448;6.650;2023-05-23T08:00:22;38782.00;;;-141.29;84.95
22025;BME280;11176;51.448;6.650;2023-05-23T08:02:55;38758.06;;;-141.29;85.19
22025;BME280;11176;51.448;6.650;2023-05-23T08:05:28;38730.16;;;-141.29;84.75
22025;BME280;11176;51.448;6.650;2023-05-23T08:07:56;38752.09;;;-141.29;84.99
22025;BME280;11176;51.448;6.650;2023-05-23T08:10:23;38726.16;;;-141.29;85.11
22025;BME280;11176;51.448;6.650;2023-05-23T08:12:55;38714.19;;;-141.29;85.06
22025;BME280;11176;51.448;6.650;2023-05-23T08:15:30;38718.19;;;-141.29;85.15
22025;BME280;11176;51.448;6.650;2023-05-23T08:18:05;38738.13;;;-141.29;85.53
22025;BME280;11176;51.448;6.650;2023-05-23T08:20:32;38714.19;;;-141.29;85.55
22025;BME280;11176;51.448;6.650;2023-05-23T08:23:00;38730.16;;;-141.29;85.81
22025;BME280;11176;51.448;6.650;2023-05-23T08:25:28;38738.13;;;-141.29;86.07
22025;BME280;11176;51.448;6.650;2023-05-23T08:27:59;38718.19;;;-141.29;85.99
22025;BME280;11176;51.448;6.650;2023-05-23T08:30:38;38694.25;;;-141.29;85.73
22025;BME280;11176;51.448;6.650;2023-05-23T08:33:05;38696.25;;;-141.29;86.08
22025;BME280;11176;51.448;6.650;2023-05-23T08:35:34;38702.22;;;-141.29;86.44
22025;BME280;11176;51.448;6.650;2023-05-23T08:38:06;38708.22;;;-141.29;86.26
22025;BME280;11176;51.448;6.650;2023-05-23T08:40:44;38678.31;;;-141.29;86.06
22025;BME280;11176;51.448;6.650;2023-05-23T08:43:15;38676.31;;;-141.29;85.52
22025;BME280;11176;51.448;6.650;2023-05-23T08:45:42;38640.41;;;-141.29;85.04
22025;BME280;11176;51.448;6.650;2023-05-23T08:48:12;38674.31;;;-141.29;84.73
22025;BME280;11176;51.448;6.650;2023-05-23T08:50:45;38658.34;;;-141.29;84.53
22025;BME280;11176;51.448;6.650;2023-05-23T08:53:15;38638.41;;;-141.29;84.59
22025;BME280;11176;51.448;6.650;2023-05-23T08:55:51;38630.44;;;-141.29;84.49
22025;BME280;11176;51.448;6.650;2023-05-23T08:58:23;38642.41;;;-141.29;84.53
22025;BME280;11176;51.448;6.650;2023-05-23T09:00:55;38622.47;;;-141.29;84.49
22025;BME280;11176;51.448;6.650;2023-05-23T09:03:27;38598.53;;;-141.29;84.73
22025;BME280;11176;51.448;6.650;2023-05-23T09:06:10;38582.56;;;-141.29;84.15
22025;BME280;11176;51.448;6.650;2023-05-23T09:08:37;38562.63;;;-141.29;84.16
22025;BME280;11176;51.448;6.650;2023-05-23T09:11:05;38574.59;;;-141.29;84.02
22025;BME280;11176;51.448;6.650;2023-05-23T09:13:35;38542.69;;;-141.29;83.14
22025;BME280;11176;51.448;6.650;2023-05-23T09:16:08;38494.81;;;-141.29;83.21
22025;BME280;11176;51.448;6.650;2023-05-23T09:18:43;38526.72;;;-141.29;83.38
22025;BME280;11176;51.448;6.650;2023-05-23T09:21:13;38518.75;;;-141.29;83.63
22025;BME280;11176;51.448;6.650;2023-05-23T09:24:09;38494.81;;;-141.29;83.28
22025;BME280;11176;51.448;6.650;2023-05-23T09:26:36;38500.81;;;-141.29;82.85
22025;BME280;11176;51.448;6.650;2023-05-23T09:29:05;38458.91;;;-141.29;82.30
22025;BME280;11176;51.448;6.650;2023-05-23T09:31:31;38466.91;;;-141.29;81.75
22025;BME280;11176;51.448;6.650;2023-05-23T09:34:00;38464.91;;;-141.29;81.48
22025;BME280;11176;51.448;6.650;2023-05-23T09:36:28;38458.91;;;-141.29;81.13
22025;BME280;11176;51.448;6.650;2023-05-23T09:39:03;38458.91;;;-141.29;80.85
22025;BME280;11176;51.448;6.650;2023-05-23T09:41:34;38419.03;;;-141.29;80.73
22025;BME280;11176;51.448;6.650;2023-05-23T09:44:07;38423.03;;;-141.29;80.70
22025;BME280;11176;51.448;6.650;2023-05-23T09:46:35;38423.03;;;-141.29;80.56
22025;BME280;11176;51.448;6.650;2023-05-23T09:49:15;38421.03;;;-141.29;80.17
22025;BME280;11176;51.448;6.650;2023-05-23T09:51:56;38403.09;;;-141.29;80.23
22025;BME280;11176;51.448;6.650;2023-05-23T09:54:23;38407.06;;;-141.29;78.68
22025;BME280;11176;51.448;6.650;2023-05-23T09:56:51;38405.06;;;-141.29;77.94
22025;BME280;11176;51.448;6.650;2023-05-23T09:59:20;38379.16;;;-141.29;75.58
22025;BME280;11176;51.448;6.650;2023-05-23T10:01:50;38371.19;;;-141.29;75.28
22025;BME280;11176;51.448;6.650;2023-05-23T10:04:21;38379.16;;;-141.29;75.87
22025;BME280;11176;51.448;6.650;2023-05-23T10:06:55;38407.06;;;-141.29;74.97
22025;BME280;11176;51.448;6.650;2023-05-23T10:09:24;38458.91;;;-141.29;75.82
22025;BME280;11176;51.448;6.650;2023-05-23T10:14:51;38450.94;;;-141.29;73.37
22025;BME280;11176;51.448;6.650;2023-05-23T10:20:13;38438.97;;;-141.29;72.81
22025;BME280;11176;51.448;6.650;2023-05-23T10:22:42;38415.06;;;-141.29;70.52
22025;BME280;11176;51.448;6.650;2023-05-23T10:25:09;38472.88;;;-141.29;70.83
22025;BME280;11176;51.448;6.650;2023-05-23T10:27:36;38440.97;;;-141.29;69.91
22025;BME280;11176;51.448;6.650;2023-05-23T10:30:06;38411.06;;;-141.29;69.32
22025;BME280;11176;51.448;6.650;2023-05-23T10:32:34;38450.94;;;-141.29;69.69
22025;BME280;11176;51.448;6.650;2023-05-23T10:37:58;38470.88;;;-141.29;69.91
22025;BME280;11176;51.448;6.650;2023-05-23T10:43:01;38450.94;;;-141.29;68.83
22025;BME280;11176;51.448;6.650;2023-05-23T10:45:38;38417.03;;;-141.29;67.13
22025;BME280;11176;51.448;6.650;2023-05-23T10:48:32;38435.00;;;-141.29;67.69
22025;BME280;11176;51.448;6.650;2023-05-23T10:51:02;38460.91;;;-141.29;67.77
22025;BME280;11176;51.448;6.650;2023-05-23T10:53:31;38472.88;;;-141.29;67.33
22025;BME280;11176;51.448;6.650;2023-05-23T10:55:59;38421.03;;;-141.29;65.63
22025;BME280;11176;51.448;6.650;2023-05-23T10:58:29;38466.91;;;-141.29;64.83
22025;BME280;11176;51.448;6.650;2023-05-23T11:00:59;38442.97;;;-141.29;63.53
22025;BME280;11176;51.448;6.650;2023-05-23T11:06:40;38407.06;;;-141.29;62.21
22025;BME280;11176;51.448;6.650;2023-05-23T11:09:13;38433.00;;;-141.29;62.64
22025;BME280;11176;51.448;6.650;2023-05-23T11:14:32;38446.97;;;-141.29;63.86
22025;BME280;11176;51.448;6.650;2023-05-23T11:17:00;38407.06;;;-141.29;62.40
22025;BME280;11176;51.448;6.650;2023-05-23T11:19:54;38415.06;;;-141.29;63.08
22025;BME280;11176;51.448;6.650;2023-05-23T11:22:30;38347.25;;;-141.29;61.36
22025;BME280;11176;51.448;6.650;2023-05-23T11:24:57;38355.22;;;-141.29;59.62
22025;BME280;11176;51.448;6.650;2023-05-23T11:27:32;38355.22;;;-141.29;59.21
22025;BME280;11176;51.448;6.650;2023-05-23T11:30:13;38335.28;;;-141.29;58.93
22025;BME280;11176;51.448;6.650;2023-05-23T11:32:41;38407.06;;;-141.29;60.27
22025;BME280;11176;51.448;6.650;2023-05-23T11:35:09;38383.13;;;-141.29;59.27
22025;BME280;11176;51.448;6.650;2023-05-23T11:37:39;38431.00;;;-141.29;59.56
22025;BME280;11176;51.448;6.650;2023-05-23T11:42:59;38435.00;;;-141.29;55.54
22025;BME280;11176;51.448;6.650;2023-05-23T11:45:28;38440.97;;;-141.29;56.37
22025;BME280;11176;51.448;6.650;2023-05-23T11:47:54;38427.00;;;-141.29;54.60
22025;BME280;11176;51.448;6.650;2023-05-23T11:50:21;38472.88;;;-141.29;54.42
22025;BME280;11176;51.448;6.650;2023-05-23T11:52:49;38417.03;;;-141.29;51.19
22025;BME280;11176;51.448;6.650;2023-05-23T11:55:20;38468.91;;;-141.29;52.36
22025;BME280;11176;51.448;6.650;2023-05-23T11:57:48;38411.06;;;-141.29;47.76
22025;BME280;11176;51.448;6.650;2023-05-23T12:00:15;38442.97;;;-141.29;47.84
22025;BME280;11176;51.448;6.650;2023-05-23T12:02:42;38526.72;;;-141.29;48.18
22025;BME280;11176;51.448;6.650;2023-05-23T12:05:11;38498.81;;;-141.29;45.81
22025;BME280;11176;51.448;6.650;2023-05-23T12:07:46;38574.59;;;-141.29;46.77
22025;BME280;11176;51.448;6.650;2023-05-23T12:10:14;38554.66;;;-141.29;44.52
22025;BME280;11176;51.448;6.650;2023-05-23T12:12:42;38514.75;;;-141.29;43.35
22025;BME280;11176;51.448;6.650;2023-05-23T12:15:09;38538.69;;;-141.29;42.73
22025;BME280;11176;51.448;6.650;2023-05-23T12:17:37;38590.56;;;-141.29;42.65
22025;BME280;11176;51.448;6.650;2023-05-23T12:20:06;38602.50;;;-141.29;42.31
22025;BME280;11176;51.448;6.650;2023-05-23T12:22:33;38642.41;;;-141.29;41.93
22025;BME280;11176;51.448;6.650;2023-05-23T12:25:00;38628.44;;;-141.29;41.36
22025;BME280;11176;51.448;6.650;2023-05-23T12:27:28;38644.41;;;-141.29;40.66
22025;BME280;11176;51.448;6.650;2023-05-23T12:30:08;38598.53;;;-141.29;39.06
22025;BME280;11176;51.448;6.650;2023-05-23T12:32:40;38530.72;;;-141.29;37.36
22025;BME280;11176;51.448;6.650;2023-05-23T12:35:11;38494.81;;;-141.29;36.78
22025;BME280;11176;51.448;6.650;2023-05-23T12:37:39;38506.78;;;-141.29;36.66
22025;BME280;11176;51.448;6.650;2023-05-23T12:40:16;38514.75;;;-141.29;36.63
22025;BME280;11176;51.448;6.650;2023-05-23T12:42:53;38454.94;;;-141.29;36.59
22025;BME280;11176;51.448;6.650;2023-05-23T12:45:33;38450.94;;;-141.29;36.87
22025;BME280;11176;51.448;6.650;2023-05-23T12:48:05;38371.19;;;-141.29;36.10
22025;BME280;11176;51.448;6.650;2023-05-23T12:50:33;38343.25;;;-141.29;37.25
22025;BME280;11176;51.448;6.650;2023-05-23T12:52:59;38371.19;;;-141.29;38.54
22025;BME280;11176;51.448;6.650;2023-05-23T12:55:26;38395.09;;;-141.29;38.76
22025;BME280;11176;51.448;6.650;2023-05-23T12:57:52;38411.06;;;-141.29;38.71
22025;BME280;11176;51.448;6.650;2023-05-23T13:00:20;38492.81;;;-141.29;40.39
22025;BME280;11176;51.448;6.650;2023-05-23T13:02:47;38534.72;;;-141.29;40.90
22025;BME280;11176;51.448;6.650;2023-05-23T13:05:14;38520.75;;;-141.29;40.73
22025;BME280;11176;51.448;6.650;2023-05-23T13:07:41;38379.16;;;-141.29;37.42
22025;BME280;11176;51.448;6.650;2023-05-23T13:10:08;38359.22;;;-141.29;36.66
22025;BME280;11176;51.448;6.650;2023-05-23T13:12:34;38379.16;;;-141.29;37.01
22025;BME280;11176;51.448;6.650;2023-05-23T13:15:01;38351.22;;;-141.29;37.28
22025;BME280;11176;51.448;6.650;2023-05-23T13:17:27;38387.13;;;-141.29;38.06